Time;durP1;ratioP1;P1;durP2;ratioP2;P2;SDS_P1;SDS_P2;PMS_P1;PMS_P2;Temp;Humidity;BMP_temperature;BMP_pressure;BME280_temperature;BME280_humidity;BME280_pressure;Samples;Min_cycle;Max_cycle;Signal;HPM_P1;HPM_P2
2022/05/19 00:01:58;;;;;;;2.22;2.03;;;;;;;11.08;100.00;101273.66;5112353;28;20204;-75
2022/05/19 00:04:25;;;;;;;3.53;2.75;;;;;;;11.15;100.00;101275.59;5112913;28;20205;-74
2022/05/19 00:06:52;;;;;;;2.15;1.85;;;;;;;11.32;100.00;101266.63;5112795;28;20582;-75
2022/05/19 00:09:21;;;;;;;2.50;2.13;;;;;;;11.52;100.00;101276.75;5112214;28;20197;-74
2022/05/19 00:11:48;;;;;;;2.55;2.00;;;;;;;11.41;100.00;101274.69;5093618;28;20266;-74
2022/05/19 00:14:16;;;;;;;2.55;2.35;;;;;;;11.27;100.00;101255.19;5112507;28;20708;-74
2022/05/19 00:16:43;;;;;;;3.20;2.10;;;;;;;11.43;100.00;101286.00;5112263;28;20190;-74
2022/05/19 00:19:11;;;;;;;4.60;2.25;;;;;;;11.49;100.00;101287.00;5112689;28;20193;-74
2022/05/19 00:21:38;;;;;;;2.45;2.05;;;;;;;11.42;100.00;101292.03;5112776;28;20268;-74
2022/05/19 00:24:05;;;;;;;6.55;2.30;;;;;;;11.39;100.00;101280.66;5112193;28;20687;-74
2022/05/19 00:26:34;;;;;;;2.17;1.70;;;;;;;11.48;100.00;101293.06;5112195;28;20196;-74
2022/05/19 00:29:01;;;;;;;3.92;2.00;;;;;;;11.31;100.00;101259.66;5112393;28;20200;-74
2022/05/19 00:31:29;;;;;;;2.38;2.08;;;;;;;11.31;100.00;101284.72;5112091;28;20190;-74
2022/05/19 00:33:56;;;;;;;3.08;2.25;;;;;;;11.32;100.00;101269.22;5112308;28;20649;-74
2022/05/19 00:36:23;;;;;;;4.72;2.47;;;;;;;11.20;100.00;101255.84;5111838;28;20250;-73
2022/05/19 00:38:50;;;;;;;6.45;2.42;;;;;;;11.38;100.00;101273.69;5075223;28;20197;-75
2022/05/19 00:41:18;;;;;;;3.08;2.13;;;;;;;11.44;100.00;101280.00;5111519;28;20189;-75
2022/05/19 00:43:56;;;;;;;2.85;2.00;;;;;;;11.41;100.00;101274.69;5093307;28;20205;-74
2022/05/19 00:46:27;;;;;;;2.67;2.05;;;;;;;11.35;100.00;101284.88;5077313;28;20224;-75
2022/05/19 00:48:58;;;;;;;2.10;2.00;;;;;;;11.40;100.00;101283.31;5096258;28;20676;-75
2022/05/19 00:51:33;;;;;;;2.97;2.13;;;;;;;11.29;100.00;101245.75;5111958;28;20246;-75
2022/05/19 00:54:00;;;;;;;4.13;2.38;;;;;;;11.29;100.00;101263.94;5111779;28;20205;-74
2022/05/19 00:56:31;;;;;;;2.42;2.22;;;;;;;11.50;100.00;101279.28;5111709;28;20597;-75
2022/05/19 00:59:06;;;;;;;4.88;1.70;;;;;;;11.23;100.00;101261.16;5111847;28;20216;-75
2022/05/19 01:01:35;;;;;;;8.73;2.58;;;;;;;11.16;100.00;101281.69;5111602;28;20193;-75
2022/05/19 01:04:06;;;;;;;3.85;2.17;;;;;;;11.02;100.00;101281.25;5111347;28;20198;-75
2022/05/19 01:06:35;;;;;;;2.20;2.10;;;;;;;10.90;100.00;101268.75;5111092;28;20224;-75
2022/05/19 01:09:04;;;;;;;2.15;2.05;;;;;;;10.78;100.00;101276.13;5111282;28;20208;-74
2022/05/19 01:11:31;;;;;;;1.90;1.80;;;;;;;10.87;100.00;101272.94;5111457;28;20201;-73
2022/05/19 01:14:00;;;;;;;2.13;1.98;;;;;;;10.67;100.00;101232.47;5111838;28;20201;-73
2022/05/19 01:16:27;;;;;;;3.53;2.28;;;;;;;10.79;100.00;101269.22;5111682;28;20258;-73
2022/05/19 01:18:54;;;;;;;3.28;1.83;;;;;;;10.88;100.00;101277.28;5110905;28;20836;-73
2022/05/19 01:21:22;;;;;;;2.05;1.95;;;;;;;10.83;100.00;101250.31;5111585;27;20209;-75
2022/05/19 01:23:59;;;;;;;2.45;2.22;;;;;;;11.23;100.00;101283.63;5111214;28;20202;-73
2022/05/19 01:26:53;;;;;;;3.20;2.20;;;;;;;11.12;100.00;101254.75;5111330;28;20204;-74
2022/05/19 01:29:23;;;;;;;2.42;2.22;;;;;;;11.10;100.00;101243.41;5111250;28;20284;-73
2022/05/19 01:31:52;;;;;;;3.55;1.90;;;;;;;11.27;100.00;101285.50;5110936;28;20233;-73
2022/05/19 01:34:22;;;;;;;2.13;2.03;;;;;;;11.07;100.00;101251.09;5111564;28;20201;-73
2022/05/19 01:36:49;;;;;;;3.38;2.33;;;;;;;11.08;100.00;101278.84;5110916;28;20225;-73
2022/05/19 01:39:19;;;;;;;2.17;2.08;;;;;;;11.05;100.00;101277.84;5110854;28;20205;-73
2022/05/19 01:41:58;;;;;;;7.95;2.85;;;;;;;10.86;100.00;101272.06;5096132;28;20208;-75
2022/05/19 01:44:36;;;;;;;2.58;2.35;;;;;;;10.94;100.00;101283.59;5111315;28;20204;-74
2022/05/19 01:47:11;;;;;;;2.22;1.92;;;;;;;10.86;100.00;101281.56;5110965;28;20201;-74
2022/05/19 01:49:43;;;;;;;2.30;2.20;;;;;;;10.94;100.00;101281.00;5111166;28;20668;-74
2022/05/19 01:52:17;;;;;;;2.40;2.20;;;;;;;10.96;100.00;101268.03;5099249;28;20193;-74
2022/05/19 01:54:49;;;;;;;3.83;2.13;;;;;;;11.15;100.00;101285.09;5110482;28;20220;-74
2022/05/19 01:57:24;;;;;;;2.58;2.38;;;;;;;11.15;100.00;101277.31;5110607;28;20224;-74
2022/05/19 01:59:58;;;;;;;5.60;2.50;;;;;;;11.00;100.00;101264.72;5110317;28;20201;-75
2022/05/19 02:02:29;;;;;;;5.13;2.38;;;;;;;10.98;100.00;101263.81;5110451;28;20197;-74
2022/05/19 02:05:02;;;;;;;3.33;2.10;;;;;;;11.10;100.00;101290.13;5111248;28;20206;-74
2022/05/19 02:07:31;;;;;;;2.88;2.67;;;;;;;11.13;100.00;101287.63;5110669;28;20205;-74
2022/05/19 02:10:06;;;;;;;3.30;2.05;;;;;;;11.18;100.00;101285.19;5111493;28;20201;-74
2022/05/19 02:12:37;;;;;;;3.55;2.30;;;;;;;11.06;100.00;101270.09;5110526;28;20668;-74
2022/05/19 02:15:08;;;;;;;2.55;2.00;;;;;;;11.15;100.00;101292.88;5110518;28;20308;-74
2022/05/19 02:17:36;;;;;;;3.63;2.30;;;;;;;11.16;100.00;101294.66;5112647;28;20212;-74
2022/05/19 02:20:07;;;;;;;2.60;2.40;;;;;;;11.14;100.00;101297.19;5115062;28;20221;-74
2022/05/19 02:22:39;;;;;;;2.42;2.28;;;;;;;10.60;100.00;101223.63;5079314;28;20197;-74
2022/05/19 02:25:13;;;;;;;3.63;2.33;;;;;;;10.87;100.00;101272.94;5115354;28;20237;-74
2022/05/19 02:27:46;;;;;;;6.47;2.10;;;;;;;10.92;100.00;101287.81;5079124;28;20196;-74
2022/05/19 02:30:16;;;;;;;3.65;2.03;;;;;;;10.84;100.00;101281.50;5092214;28;20201;-74
2022/05/19 02:32:43;;;;;;;1.98;1.88;;;;;;;10.85;100.00;101300.53;5111824;28;20225;-74
2022/05/19 02:35:12;;;;;;;2.35;2.15;;;;;;;10.83;100.00;101307.41;5114955;28;20243;-74
2022/05/19 02:37:39;;;;;;;2.40;2.15;;;;;;;10.81;100.00;101304.75;5098239;28;20240;-74
2022/05/19 02:40:07;;;;;;;4.05;2.05;;;;;;;10.81;100.00;101314.25;5114550;28;20289;-74
2022/05/19 02:42:34;;;;;;;2.75;2.55;;;;;;;10.81;100.00;101311.66;5044920;28;20208;-74
2022/05/19 02:45:02;;;;;;;2.50;2.30;;;;;;;10.56;100.00;101280.53;5085521;28;20193;-74
2022/05/19 02:47:29;;;;;;;2.65;2.28;;;;;;;10.66;100.00;101304.25;5114680;28;20205;-74
2022/05/19 02:49:56;;;;;;;6.47;2.75;;;;;;;10.66;100.00;101314.63;5113393;28;20198;-74
2022/05/19 02:52:23;;;;;;;3.13;2.35;;;;;;;10.52;100.00;101289.06;5114588;28;20200;-74
2022/05/19 02:54:49;;;;;;;2.63;2.10;;;;;;;10.65;100.00;101318.03;5113873;28;20194;-74
2022/05/19 02:57:16;;;;;;;7.15;2.33;;;;;;;10.67;100.00;101310.28;5113445;28;20194;-73
2022/05/19 02:59:44;;;;;;;7.75;2.50;;;;;;;10.70;100.00;101313.03;5114201;28;20202;-74
2022/05/19 03:02:12;;;;;;;15.95;3.35;;;;;;;10.96;100.00;101288.81;5113609;28;20224;-74
2022/05/19 03:04:39;;;;;;;4.13;2.63;;;;;;;10.81;100.00;101319.44;5077622;28;20254;-74
2022/05/19 03:07:07;;;;;;;3.30;2.67;;;;;;;10.73;100.00;101326.09;5095046;28;20197;-74
2022/05/19 03:09:34;;;;;;;3.13;2.90;;;;;;;10.67;100.00;101331.03;5113620;28;20225;-75
2022/05/19 03:12:01;;;;;;;4.95;4.30;;;;;;;10.94;100.00;101332.00;5077671;28;20208;-73
2022/05/19 03:14:28;;;;;;;3.90;3.17;;;;;;;11.22;100.00;101319.09;5094460;28;20798;-75
2022/05/19 03:16:54;;;;;;;4.10;3.22;;;;;;;11.00;100.00;101326.13;5113791;28;20604;-75
2022/05/19 03:19:23;;;;;;;4.20;3.90;;;;;;;10.75;100.00;101334.78;5114160;28;20186;-76
2022/05/19 03:21:50;;;;;;;4.40;3.97;;;;;;;10.63;100.00;101326.63;5113005;28;20675;-74
2022/05/19 03:24:16;;;;;;;5.43;4.70;;;;;;;10.64;100.00;101325.75;5114208;28;20197;-73
2022/05/19 03:26:43;;;;;;;9.93;5.45;;;;;;;10.71;100.00;101327.72;5113473;28;20220;-73
2022/05/19 03:29:10;;;;;;;8.35;5.20;;;;;;;10.58;100.00;101330.75;5113224;28;20200;-73
2022/05/19 03:31:38;;;;;;;33.42;5.97;;;;;;;10.58;100.00;101325.56;5077645;28;20205;-74
2022/05/19 03:34:05;;;;;;;23.50;6.30;;;;;;;10.67;100.00;101337.13;5113837;28;20239;-76
2022/05/19 03:36:33;;;;;;;36.90;5.85;;;;;;;10.78;100.00;101333.19;5113011;28;20265;-73
2022/05/19 03:39:01;;;;;;;9.07;4.63;;;;;;;10.54;100.00;101300.34;5112075;28;20205;-74
2022/05/19 03:41:27;;;;;;;6.93;4.38;;;;;;;10.35;100.00;101323.03;5112883;28;20197;-74
2022/05/19 03:43:54;;;;;;;9.98;4.80;;;;;;;10.67;100.00;101331.94;5113189;28;20193;-74
2022/05/19 03:46:21;;;;;;;6.63;4.50;;;;;;;11.08;100.00;101325.56;5112779;28;20562;-74
2022/05/19 03:48:48;;;;;;;7.97;4.20;;;;;;;12.02;100.00;101343.25;5112340;28;20582;-73
2022/05/19 03:51:22;;;;;;;4.00;3.70;;;;;;;12.83;100.00;101349.84;5112748;28;20198;-73
2022/05/19 03:53:51;;;;;;;4.75;3.15;;;;;;;13.80;100.00;101373.09;5112012;28;20631;-73
2022/05/19 03:56:17;;;;;;;3.70;3.42;;;;;;;14.37;100.00;101369.19;5113135;28;20260;-74
2022/05/19 03:58:44;;;;;;;4.10;2.80;;;;;;;14.99;100.00;101398.19;5113386;28;20204;-74
2022/05/19 04:01:11;;;;;;;3.58;2.67;;;;;;;15.16;100.00;101404.59;5112078;28;20198;-73
2022/05/19 04:03:39;;;;;;;7.13;2.53;;;;;;;16.12;100.00;101412.25;5111261;28;20225;-74
2022/05/19 04:06:06;;;;;;;5.30;2.90;;;;;;;16.16;100.00;101369.53;5112193;28;20272;-74
2022/05/19 04:08:32;;;;;;;2.85;2.63;;;;;;;16.83;100.00;101415.78;5112760;28;20208;-74
2022/05/19 04:11:02;;;;;;;2.78;2.40;;;;;;;17.28;100.00;101398.75;5111988;28;20204;-74
2022/05/19 04:13:29;;;;;;;2.50;2.20;;;;;;;17.47;100.00;101405.03;5112529;28;20197;-74
2022/05/19 04:15:56;;;;;;;6.55;2.35;;;;;;;17.79;100.00;101435.03;5092175;28;20754;-73
2022/05/19 04:18:23;;;;;;;3.75;2.28;;;;;;;17.91;97.51;101422.00;5112251;28;20201;-75
2022/05/19 04:20:50;;;;;;;5.32;2.33;;;;;;;18.12;95.00;101430.00;5111457;28;20193;-75
2022/05/19 04:23:17;;;;;;;8.82;2.80;;;;;;;17.68;97.46;101399.97;5112176;28;20198;-73
2022/05/19 04:25:44;;;;;;;4.25;2.67;;;;;;;18.44;97.71;101429.31;5111735;28;20197;-74
2022/05/19 04:28:13;;;;;;;3.97;2.15;;;;;;;19.63;85.31;101428.72;5091907;28;20194;-74
2022/05/19 04:30:41;;;;;;;3.60;2.55;;;;;;;19.87;78.71;101423.44;5111054;28;20194;-74
2022/05/19 04:33:08;;;;;;;3.33;2.33;;;;;;;20.65;73.64;101439.94;5111978;28;20221;-72
2022/05/19 04:35:36;;;;;;;3.08;2.13;;;;;;;20.75;71.55;101439.88;5111194;28;20221;-72
2022/05/19 04:38:06;;;;;;;3.95;2.30;;;;;;;19.71;72.00;101376.97;5111062;28;20662;-74
2022/05/19 04:40:36;;;;;;;5.43;2.50;;;;;;;19.99;74.68;101415.53;5111509;28;20200;-74
2022/05/19 04:43:03;;;;;;;2.50;2.00;;;;;;;19.68;75.52;101432.25;5111319;28;20594;-73
2022/05/19 04:45:32;;;;;;;4.30;2.30;;;;;;;19.66;77.41;101431.34;5110846;28;20609;-74
2022/05/19 04:47:59;;;;;;;3.28;2.97;;;;;;;19.95;82.44;101432.19;5111419;28;20297;-73
2022/05/19 04:50:27;;;;;;;2.55;2.00;;;;;;;19.51;79.16;101434.84;5111628;28;20574;-74
2022/05/19 04:52:54;;;;;;;7.78;2.38;;;;;;;19.09;78.92;101409.38;5111428;28;20197;-73
2022/05/19 04:55:20;;;;;;;2.47;2.28;;;;;;;20.02;75.43;101443.59;5111659;28;20197;-74
2022/05/19 04:57:47;;;;;;;4.75;2.22;;;;;;;20.59;74.66;101425.00;5111289;28;20201;-75
2022/05/19 05:00:16;;;;;;;4.38;2.63;;;;;;;20.91;67.12;101445.94;5111200;28;20193;-74
2022/05/19 05:02:44;;;;;;;2.47;2.38;;;;;;;21.05;69.41;101449.38;5104627;28;20189;-73
2022/05/19 05:05:11;;;;;;;4.88;2.35;;;;;;;21.53;65.62;101447.31;5109733;28;20197;-74
2022/05/19 05:07:38;;;;;;;7.00;2.15;;;;;;;22.30;61.96;101443.06;5111098;28;20201;-74
2022/05/19 05:10:06;;;;;;;5.60;2.63;;;;;;;22.62;59.88;101441.78;5111255;28;20656;-74
2022/05/19 05:12:33;;;;;;;7.03;3.58;;;;;;;23.11;57.57;101441.19;5088574;28;20563;-73
2022/05/19 05:15:00;;;;;;;6.70;2.20;;;;;;;23.41;55.56;101430.13;5110679;28;20194;-74
2022/05/19 05:17:27;;;;;;;6.18;2.58;;;;;;;22.87;57.12;101457.38;5111173;28;20229;-74
2022/05/19 05:19:55;;;;;;;3.90;2.20;;;;;;;22.93;56.87;101455.53;5105903;28;20198;-73
2022/05/19 05:22:21;;;;;;;2.97;2.28;;;;;;;22.84;56.06;101429.19;5075157;28;20254;-73
2022/05/19 05:24:48;;;;;;;2.33;2.10;;;;;;;22.93;57.06;101447.59;5111190;28;20189;-74
2022/05/19 05:27:15;;;;;;;2.65;2.10;;;;;;;22.95;57.14;101456.38;5075585;28;20198;-73
2022/05/19 05:29:42;;;;;;;3.22;2.03;;;;;;;22.44;60.34;101454.38;5110950;28;20628;-73
2022/05/19 05:32:09;;;;;;;4.70;2.40;;;;;;;22.77;58.70;101459.28;5110260;28;20200;-72
2022/05/19 05:34:36;;;;;;;6.18;2.53;;;;;;;22.58;58.31;101453.28;5111200;28;20216;-72
2022/05/19 05:37:06;;;;;;;7.38;2.35;;;;;;;22.60;59.27;101453.28;5110975;28;20233;-73
2022/05/19 05:39:33;;;;;;;3.20;2.17;;;;;;;21.39;63.46;101451.84;5110890;28;20208;-73
2022/05/19 05:42:00;;;;;;;3.45;2.17;;;;;;;21.43;68.90;101445.66;5110965;28;20197;-73
2022/05/19 05:44:27;;;;;;;3.63;2.40;;;;;;;20.91;67.88;101426.59;5111079;28;20202;-72
2022/05/19 05:46:53;;;;;;;4.50;2.28;;;;;;;20.53;69.89;101416.25;5110910;28;20570;-73
2022/05/19 05:49:20;;;;;;;4.95;2.42;;;;;;;20.46;73.50;101456.69;5111140;28;20201;-73
2022/05/19 05:51:48;;;;;;;3.30;2.80;;;;;;;20.00;77.36;101450.63;5110221;28;20296;-73
2022/05/19 05:54:16;;;;;;;4.75;2.58;;;;;;;19.35;81.60;101448.88;5110915;28;20904;-73
2022/05/19 05:56:43;;;;;;;4.90;2.67;;;;;;;19.77;82.91;101453.28;5110706;28;20225;-76
2022/05/19 05:59:10;;;;;;;2.95;2.45;;;;;;;19.67;85.21;101441.00;5110772;28;20202;-74
2022/05/19 06:01:37;;;;;;;2.65;2.45;;;;;;;19.61;85.41;101448.91;5075023;28;20242;-74
2022/05/19 06:04:04;;;;;;;3.97;2.40;;;;;;;18.82;88.39;101456.63;5091548;28;20203;-73
2022/05/19 06:06:31;;;;;;;5.20;3.08;;;;;;;17.98;100.00;101457.91;5110645;28;20201;-73
2022/05/19 06:08:57;;;;;;;2.25;2.13;;;;;;;17.75;100.00;101454.25;5110670;28;20734;-74
2022/05/19 06:11:26;;;;;;;2.75;2.10;;;;;;;17.70;100.00;101442.84;5110705;28;20722;-74
2022/05/19 06:13:53;;;;;;;2.50;2.30;;;;;;;17.58;100.00;101440.13;5074887;28;20673;-74
2022/05/19 06:16:20;;;;;;;2.85;2.28;;;;;;;17.58;100.00;101421.78;5110516;28;20274;-74
2022/05/19 06:18:47;;;;;;;5.82;2.25;;;;;;;17.63;100.00;101459.38;5110596;28;20197;-74
2022/05/19 06:21:14;;;;;;;2.38;2.22;;;;;;;17.57;100.00;101444.50;5110497;28;20204;-74
2022/05/19 06:23:40;;;;;;;3.03;2.50;;;;;;;17.57;100.00;101460.22;5110827;28;20200;-76
2022/05/19 06:26:07;;;;;;;3.53;2.40;;;;;;;17.21;100.00;101452.00;5110495;28;20201;-76
2022/05/19 06:28:35;;;;;;;2.33;2.13;;;;;;;16.67;100.00;101460.13;5110608;28;20595;-75
2022/05/19 06:31:03;;;;;;;5.45;2.67;;;;;;;16.61;100.00;101419.03;5110641;28;20246;-75
2022/05/19 06:33:32;;;;;;;4.75;2.65;;;;;;;16.78;100.00;101433.19;5110333;28;20197;-75
2022/05/19 06:35:58;;;;;;;4.68;2.80;;;;;;;16.48;100.00;101424.06;5110482;28;20204;-75
2022/05/19 06:38:25;;;;;;;2.78;2.45;;;;;;;16.67;100.00;101445.28;5110159;28;20233;-74
2022/05/19 06:42:00;;;;;;;2.95;2.67;;;;;;;16.26;100.00;101457.81;5110340;28;20208;-75
2022/05/19 06:43:40;;;;;;;3.70;3.22;;;;;;;16.11;100.00;101391.28;5110399;28;20208;-76
2022/05/19 06:46:07;;;;;;;10.90;2.85;;;;;;;16.56;100.00;101439.03;5110616;28;20229;-76
2022/05/19 06:48:34;;;;;;;2.47;2.38;;;;;;;16.31;100.00;101429.94;5074713;28;20638;-75
2022/05/19 06:51:01;;;;;;;4.68;3.05;;;;;;;16.51;100.00;101453.78;5074441;28;20205;-75
2022/05/19 06:53:28;;;;;;;8.95;2.58;;;;;;;16.62;100.00;101451.34;5110470;28;20201;-76
2022/05/19 06:55:55;;;;;;;3.05;2.75;;;;;;;16.47;100.00;101456.34;5110386;28;20193;-77
2022/05/19 06:58:22;;;;;;;3.35;3.05;;;;;;;16.41;100.00;101441.41;5074865;28;20201;-77
2022/05/19 07:00:50;;;;;;;4.00;3.65;;;;;;;16.67;100.00;101450.53;5110405;28;20194;-77
2022/05/19 07:03:17;;;;;;;2.92;2.67;;;;;;;16.55;100.00;101423.28;5110216;28;20201;-77
2022/05/19 07:05:44;;;;;;;2.92;2.72;;;;;;;16.68;100.00;101431.34;5113646;28;20204;-76
2022/05/19 07:08:10;;;;;;;3.22;2.90;;;;;;;16.89;100.00;101456.88;5114111;28;20193;-76
2022/05/19 07:10:37;;;;;;;3.17;2.88;;;;;;;16.71;100.00;101452.31;5113778;28;20208;-76
2022/05/19 07:13:04;;;;;;;3.55;2.80;;;;;;;16.49;100.00;101445.03;5113867;28;20582;-77
2022/05/19 07:15:31;;;;;;;5.18;3.30;;;;;;;16.67;100.00;101447.00;5094442;28;20193;-76
2022/05/19 07:17:59;;;;;;;3.25;3.05;;;;;;;16.69;100.00;101422.63;5113701;28;20248;-76
2022/05/19 07:23:14;;;;;;;4.75;3.08;;;;;;;16.67;100.00;101436.53;5113594;28;20290;-73
2022/05/19 07:25:42;;;;;;;2.97;2.78;;;;;;;16.79;100.00;101455.03;5113428;28;20189;-75
2022/05/19 07:28:08;;;;;;;4.03;3.08;;;;;;;17.05;100.00;101458.81;5113800;28;20225;-73
2022/05/19 07:30:35;;;;;;;5.70;3.20;;;;;;;17.31;100.00;101461.69;5113273;28;20292;-73
2022/05/19 07:33:04;;;;;;;5.15;2.80;;;;;;;17.12;100.00;101434.41;5113311;28;20197;-74
2022/05/19 07:35:31;;;;;;;4.63;2.70;;;;;;;17.34;100.00;101462.59;5113161;28;20201;-73
2022/05/19 07:37:58;;;;;;;2.70;2.50;;;;;;;17.35;100.00;101472.25;5093710;28;20297;-73
2022/05/19 07:40:25;;;;;;;4.38;3.10;;;;;;;17.22;100.00;101446.78;5112950;28;20198;-75
2022/05/19 07:42:52;;;;;;;3.72;3.20;;;;;;;16.94;100.00;101429.00;5093726;28;20205;-72
2022/05/19 07:45:19;;;;;;;3.67;3.28;;;;;;;17.25;100.00;101473.00;5112984;28;20668;-73
2022/05/19 07:47:45;;;;;;;4.20;3.90;;;;;;;17.44;100.00;101466.22;5112978;28;20741;-76
2022/05/19 07:50:14;;;;;;;5.95;3.67;;;;;;;17.51;100.00;101467.13;5112674;28;20665;-73
2022/05/19 07:52:41;;;;;;;3.78;3.47;;;;;;;17.64;100.00;101463.78;5112711;28;20193;-74
2022/05/19 07:55:10;;;;;;;6.72;3.97;;;;;;;17.71;100.00;101468.22;5112770;28;20262;-73
2022/05/19 07:57:37;;;;;;;5.20;3.67;;;;;;;17.63;100.00;101470.75;5076786;28;20705;-73
2022/05/19 08:00:05;;;;;;;3.85;3.45;;;;;;;17.64;100.00;101450.66;5113184;28;20193;-73
2022/05/19 08:02:32;;;;;;;3.85;3.50;;;;;;;17.90;100.00;101470.13;5089485;28;20202;-72
2022/05/19 08:04:59;;;;;;;5.15;3.80;;;;;;;18.00;100.00;101461.44;5092331;28;20206;-73
2022/05/19 08:07:27;;;;;;;3.45;3.13;;;;;;;18.01;100.00;101463.22;5092335;28;20671;-73
2022/05/19 08:15:36;;;;;;;3.88;3.28;;;;;;;17.76;100.00;101435.03;5091629;28;20201;-72
2022/05/19 08:18:05;;;;;;;2.60;2.40;;;;;;;18.00;100.00;101468.44;5091922;28;20228;-73
2022/05/19 08:20:32;;;;;;;2.63;2.33;;;;;;;18.16;100.00;101460.66;5091994;28;20234;-72
2022/05/19 08:23:01;;;;;;;2.80;2.60;;;;;;;18.29;96.55;101464.25;5056455;28;20194;-73
2022/05/19 08:25:28;;;;;;;2.08;1.88;;;;;;;18.29;94.04;101459.00;5056069;28;20198;-73
2022/05/19 08:27:57;;;;;;;4.05;2.28;;;;;;;18.50;94.77;101463.47;5091699;28;20252;-73
2022/05/19 08:30:25;;;;;;;5.32;2.28;;;;;;;18.50;90.86;101460.84;5092209;28;20280;-73
2022/05/19 08:32:52;;;;;;;5.25;2.67;;;;;;;18.54;97.52;101460.91;5091481;28;20194;-74
2022/05/19 08:35:20;;;;;;;4.13;2.70;;;;;;;18.51;95.85;101418.00;5091714;28;20205;-73
2022/05/19 08:37:47;;;;;;;2.10;2.00;;;;;;;18.55;88.06;101425.88;5091527;28;20248;-74
2022/05/19 08:40:17;;;;;;;3.83;2.20;;;;;;;18.77;88.69;101467.13;5091533;28;20194;-73
2022/05/19 08:42:49;;;;;;;2.38;2.28;;;;;;;18.83;84.93;101447.88;5055840;28;20194;-73
2022/05/19 08:45:23;;;;;;;2.63;2.30;;;;;;;18.84;88.47;101431.22;5055834;28;20190;-73
2022/05/19 08:48:00;;;;;;;2.67;2.47;;;;;;;19.21;90.24;101447.97;5091527;28;20201;-73
2022/05/19 08:50:32;;;;;;;2.97;2.65;;;;;;;19.18;87.33;101459.38;5091395;28;20580;-74
2022/05/19 08:52:59;;;;;;;2.28;2.08;;;;;;;19.20;82.46;101461.97;5091301;28;20198;-74
2022/05/19 08:55:28;;;;;;;2.25;1.95;;;;;;;19.11;79.63;101438.31;5091361;28;20222;-73
2022/05/19 08:58:09;;;;;;;2.40;1.90;;;;;;;19.01;76.72;101442.69;5091040;28;20226;-75
2022/05/19 09:00:41;;;;;;;2.42;2.22;;;;;;;18.84;69.75;101428.59;5091320;28;20197;-73
2022/05/19 09:03:18;;;;;;;2.42;1.40;;;;;;;18.85;67.79;101426.84;5091629;28;20197;-73
2022/05/19 09:06:16;;;;;;;1.90;1.80;;;;;;;18.79;72.27;101432.97;5091310;28;20193;-73
2022/05/19 09:09:02;;;;;;;2.97;1.77;;;;;;;19.10;74.42;101436.56;5091036;28;20546;-73
2022/05/19 09:11:39;;;;;;;1.67;1.58;;;;;;;19.24;67.88;101447.97;5090971;28;20201;-73
2022/05/19 09:14:17;;;;;;;2.28;2.10;;;;;;;19.10;67.17;101411.13;5091073;28;20290;-73
2022/05/19 09:16:44;;;;;;;4.30;1.88;;;;;;;19.60;66.62;101439.25;5091195;28;20209;-73
2022/05/19 09:19:17;;;;;;;2.25;2.05;;;;;;;19.38;71.13;101413.78;5091028;28;20569;-74
2022/05/19 09:21:46;;;;;;;2.10;2.00;;;;;;;19.27;68.83;101414.66;5090870;28;20209;-74
2022/05/19 09:24:13;;;;;;;3.50;1.80;;;;;;;19.33;65.23;101433.06;5090705;28;20606;-74
2022/05/19 09:26:47;;;;;;;3.75;2.00;;;;;;;19.40;68.71;101404.16;5090233;28;20287;-73
2022/05/19 09:29:17;;;;;;;1.80;1.70;;;;;;;19.46;64.10;101428.75;5090774;28;20212;-74
2022/05/19 09:31:50;;;;;;;3.35;1.70;;;;;;;19.59;61.98;101429.59;5090895;28;20194;-74
2022/05/19 09:34:19;;;;;;;2.75;2.40;;;;;;;19.66;62.91;101434.88;5090773;28;20194;-73
2022/05/19 09:37:01;;;;;;;2.60;2.15;;;;;;;19.69;63.82;101423.47;5090339;28;20598;-73
2022/05/19 09:39:35;;;;;;;2.70;2.50;;;;;;;19.96;63.90;101417.28;5090527;28;20705;-74
2022/05/19 09:42:08;;;;;;;2.38;1.95;;;;;;;19.72;62.82;101373.47;5090815;28;20204;-73
2022/05/19 09:44:39;;;;;;;2.88;2.10;;;;;;;19.85;62.82;101413.78;5090688;28;20205;-73
2022/05/19 09:47:18;;;;;;;1.95;1.83;;;;;;;19.70;63.98;101402.41;5071499;28;20198;-73
2022/05/19 09:49:53;;;;;;;3.53;2.08;;;;;;;19.52;59.67;101404.16;5090528;28;20198;-74
2022/05/19 09:52:26;;;;;;;1.58;1.48;;;;;;;19.71;58.92;101405.91;5090407;28;20763;-74
2022/05/19 09:54:57;;;;;;;2.38;1.75;;;;;;;19.80;57.32;101414.66;5090502;28;20198;-74
2022/05/19 09:57:35;;;;;;;1.88;1.75;;;;;;;19.90;59.36;101405.03;5090339;28;20312;-75
2022/05/19 10:00:07;;;;;;;2.13;1.98;;;;;;;19.76;60.99;101391.00;5090387;28;20205;-75
2022/05/19 10:02:40;;;;;;;4.25;1.80;;;;;;;19.78;62.65;101386.59;5090309;28;20218;-75
2022/05/19 10:05:22;;;;;;;2.45;2.10;;;;;;;19.82;63.27;101377.84;5071360;28;20186;-75
2022/05/19 10:07:51;;;;;;;1.48;1.48;;;;;;;19.87;63.96;101370.78;5090166;28;20205;-73
2022/05/19 10:10:24;;;;;;;2.08;1.63;;;;;;;19.92;62.63;101389.22;5090229;28;20198;-74
2022/05/19 10:12:56;;;;;;;1.95;1.52;;;;;;;19.52;62.38;101362.06;5090407;28;20472;-74
2022/05/19 10:15:30;;;;;;;2.55;1.80;;;;;;;19.70;63.70;101357.66;5090349;28;20448;-74
2022/05/19 10:18:05;;;;;;;3.05;1.98;;;;;;;19.79;63.02;101356.78;5090171;28;20225;-75
2022/05/19 10:20:37;;;;;;;4.07;1.80;;;;;;;19.91;62.34;101364.63;5054449;28;20297;-73
2022/05/19 10:23:16;;;;;;;2.15;1.88;;;;;;;20.15;63.43;101366.34;5090252;28;20194;-75
2022/05/19 10:26:02;;;;;;;5.95;2.08;;;;;;;19.87;64.51;101364.66;5090188;28;20194;-74
2022/05/19 10:32:06;;;;;;;2.20;2.10;;;;;;;19.94;61.41;101314.59;5007785;28;20660;-74
2022/05/19 10:34:49;;;;;;;3.42;1.85;;;;;;;20.00;57.21;101346.19;5008013;28;20734;-72
2022/05/19 10:37:28;;;;;;;2.72;1.20;;;;;;;20.23;52.05;101360.13;5007434;28;20327;-73
2022/05/19 10:40:09;;;;;;;1.67;1.13;;;;;;;20.16;49.81;101360.16;5011440;28;20200;-71
2022/05/19 10:42:48;;;;;;;1.67;1.52;;;;;;;20.28;53.60;101350.50;5011528;28;20238;-71
2022/05/19 10:45:26;;;;;;;2.45;1.90;;;;;;;19.66;54.66;101310.28;5011644;28;20200;-71
2022/05/19 10:48:06;;;;;;;1.90;1.80;;;;;;;20.20;55.86;101354.88;5011485;28;20695;-73
2022/05/19 10:50:35;;;;;;;3.17;1.75;;;;;;;20.33;57.81;101346.97;5011184;28;20219;-74
2022/05/19 10:53:35;;;;;;;6.10;1.80;;;;;;;20.28;55.53;101353.13;5011414;28;20197;-73
2022/05/19 10:56:19;;;;;;;3.17;1.60;;;;;;;20.27;56.40;101319.75;5011199;28;20577;-74
2022/05/19 10:59:03;;;;;;;3.15;1.58;;;;;;;20.69;56.72;101349.41;5011172;28;20232;-73
2022/05/19 11:01:42;;;;;;;6.30;1.52;;;;;;;20.76;55.48;101335.31;5011293;28;20312;-73
2022/05/19 11:04:36;;;;;;;4.57;1.55;;;;;;;20.11;55.87;101322.44;5011115;28;20205;-74
2022/05/19 11:07:34;;;;;;;4.40;1.30;;;;;;;20.66;57.80;101333.59;5011405;28;20196;-74
2022/05/19 11:10:13;;;;;;;1.67;1.58;;;;;;;20.85;53.81;101334.34;4997730;28;20200;-73
2022/05/19 11:12:48;;;;;;;7.10;1.55;;;;;;;20.98;55.87;101305.25;5030669;28;20766;-73
2022/05/19 11:15:25;;;;;;;1.67;1.52;;;;;;;20.64;56.82;101241.38;5030760;28;20191;-75
2022/05/19 11:18:02;;;;;;;3.35;1.80;;;;;;;21.10;52.20;101309.56;5030851;28;20608;-74
2022/05/19 11:20:35;;;;;;;1.40;1.40;;;;;;;21.03;51.59;101321.03;5030589;28;20199;-74
2022/05/19 11:23:08;;;;;;;1.25;0.95;;;;;;;20.99;47.76;101330.72;5030441;28;20229;-74
2022/05/19 11:28:35;;;;;;;1.60;1.50;;;;;;;21.00;46.87;101327.22;5030587;28;20239;-74
2022/05/19 11:31:10;;;;;;;1.40;1.30;;;;;;;21.09;46.82;101328.88;5030493;28;20203;-75
2022/05/19 11:33:40;;;;;;;2.60;1.70;;;;;;;20.97;47.77;101303.50;5030596;28;20207;-75
2022/05/19 11:36:19;;;;;;;3.33;1.80;;;;;;;21.29;46.30;101320.84;5030305;28;20576;-73
2022/05/19 11:38:53;;;;;;;3.55;1.25;;;;;;;20.59;47.79;101340.66;5030665;28;20687;-74
2022/05/19 11:41:24;;;;;;;3.33;1.10;;;;;;;20.76;48.25;101320.34;5030425;28;20208;-73
2022/05/19 11:43:54;;;;;;;2.40;1.40;;;;;;;21.04;48.08;101314.88;5030465;28;20196;-74
2022/05/19 11:46:23;;;;;;;1.60;1.50;;;;;;;21.25;48.97;101289.22;5038741;28;20251;-75
2022/05/19 11:57:30;;;;;;;6.30;1.58;;;;;;;21.36;47.34;101289.13;5092782;28;20692;-73
2022/05/19 12:00:00;;;;;;;1.00;1.00;;;;;;;20.81;45.71;101279.88;5092304;28;20202;-73